createdAt,value
2022-10-04T00:01:42.549Z,5.43
2022-10-04T00:04:46.115Z,8.02
2022-10-04T00:07:51.106Z,7.28
2022-10-04T00:11:01.406Z,9.70
2022-10-04T00:14:08.515Z,7.20
2022-10-04T00:17:13.761Z,6.20
2022-10-04T00:20:33.770Z,7.93
2022-10-04T00:23:35.006Z,10.82
2022-10-04T00:26:36.238Z,7.15
2022-10-04T00:29:39.150Z,8.02
2022-10-04T00:32:40.416Z,6.78
2022-10-04T00:35:47.088Z,5.70
2022-10-04T00:39:06.722Z,6.57
2022-10-04T00:42:31.906Z,8.60
2022-10-04T00:45:35.897Z,8.75
2022-10-04T00:48:37.206Z,6.85
2022-10-04T00:51:43.533Z,5.90
2022-10-04T00:54:50.281Z,7.20
2022-10-04T00:57:53.989Z,5.38
2022-10-04T01:00:57.376Z,6.93
2022-10-04T01:04:00.705Z,6.53
2022-10-04T01:07:04.043Z,6.68
2022-10-04T01:10:09.124Z,9.23
2022-10-04T01:13:16.038Z,4.75
2022-10-04T01:16:19.490Z,6.20
2022-10-04T01:19:24.385Z,7.38
2022-10-04T01:25:47.082Z,6.75
2022-10-04T01:28:48.487Z,5.07
2022-10-04T01:31:50.724Z,4.68
2022-10-04T01:34:52.116Z,5.40
2022-10-04T01:37:54.149Z,4.75
2022-10-04T01:40:59.868Z,4.80
2022-10-04T01:44:03.254Z,9.02
2022-10-04T01:47:08.380Z,5.28
2022-10-04T01:50:15.825Z,5.30
2022-10-04T01:53:19.676Z,8.00
2022-10-04T01:56:23.276Z,5.55
2022-10-04T01:59:26.975Z,6.82
2022-10-04T02:02:36.240Z,7.20
2022-10-04T02:05:43.324Z,7.82
2022-10-04T02:08:47.266Z,6.32
2022-10-04T02:11:53.009Z,6.70
2022-10-04T02:14:55.573Z,6.30
2022-10-04T02:17:57.080Z,4.88
2022-10-04T02:20:58.785Z,8.90
2022-10-04T02:24:00.201Z,5.68
2022-10-04T02:27:01.568Z,5.28
2022-10-04T02:30:07.649Z,4.43
2022-10-04T02:33:10.382Z,6.32
2022-10-04T02:36:13.103Z,6.80
2022-10-04T02:39:23.497Z,6.90
2022-10-04T02:42:24.742Z,4.65
2022-10-04T02:45:33.406Z,5.32
2022-10-04T02:48:47.278Z,7.45
2022-10-04T02:51:54.451Z,4.47
2022-10-04T02:54:55.849Z,5.28
2022-10-04T02:57:58.364Z,9.27
2022-10-04T03:01:00.296Z,5.25
2022-10-04T03:04:02.428Z,5.75
2022-10-04T03:07:06.412Z,8.35
2022-10-04T03:10:12.345Z,5.47
2022-10-04T03:13:14.072Z,5.60
2022-10-04T03:16:16.013Z,5.63
2022-10-04T03:19:18.574Z,5.88
2022-10-04T03:22:20.217Z,5.72
2022-10-04T03:25:28.821Z,4.90
2022-10-04T03:28:30.252Z,7.68
2022-10-04T03:31:33.265Z,8.50
2022-10-04T03:34:36.962Z,6.40
2022-10-04T03:37:38.351Z,5.97
2022-10-04T03:40:41.778Z,5.22
2022-10-04T03:43:45.268Z,7.18
2022-10-04T03:46:46.925Z,6.30
2022-10-04T03:49:50.978Z,6.57
2022-10-04T03:52:54.606Z,6.72
2022-10-04T03:55:57.088Z,4.25
2022-10-04T03:59:01.705Z,6.03
2022-10-04T04:02:02.996Z,5.50
2022-10-04T04:05:22.080Z,6.80
2022-10-04T04:08:33.771Z,5.50
2022-10-04T04:11:35.602Z,5.82
2022-10-04T04:14:38.850Z,12.82
2022-10-04T04:17:45.471Z,6.70
2022-10-04T04:20:47.754Z,5.70
2022-10-04T04:23:51.307Z,7.13
2022-10-04T04:27:01.386Z,6.82
2022-10-04T04:30:02.973Z,5.47
2022-10-04T04:33:10.106Z,5.28
2022-10-04T04:36:12.354Z,7.35
2022-10-04T04:39:32.372Z,5.90
2022-10-04T04:42:34.801Z,6.50
2022-10-04T04:45:36.480Z,5.68
2022-10-04T04:48:37.812Z,6.68
2022-10-04T04:51:39.834Z,6.47
2022-10-04T04:54:41.251Z,5.40
2022-10-04T04:57:44.846Z,6.15
2022-10-04T05:00:49.362Z,5.53
2022-10-04T05:04:08.911Z,8.98
2022-10-04T05:07:18.020Z,4.85
2022-10-04T05:10:34.662Z,6.97
2022-10-04T05:13:40.130Z,5.05
2022-10-04T05:16:50.627Z,7.15
2022-10-04T05:19:55.891Z,5.70
2022-10-04T05:22:58.061Z,7.05
2022-10-04T05:26:00.323Z,7.97
2022-10-04T05:29:06.907Z,6.40
2022-10-04T05:32:11.044Z,6.15
2022-10-04T05:35:17.172Z,5.75
2022-10-04T05:38:18.397Z,5.68
2022-10-04T05:41:32.771Z,8.05
2022-10-04T05:44:36.331Z,8.32
2022-10-04T05:47:40.698Z,7.97
2022-10-04T05:50:43.526Z,8.70
2022-10-04T05:53:45.559Z,8.65
2022-10-04T05:57:00.426Z,7.15
2022-10-04T06:00:13.113Z,11.05
2022-10-04T06:03:17.567Z,6.53
2022-10-04T06:06:31.175Z,12.00
2022-10-04T06:09:51.335Z,6.03
2022-10-04T06:13:11.194Z,8.85
2022-10-04T06:16:20.103Z,8.05
2022-10-04T06:19:21.378Z,5.82
2022-10-04T06:22:23.638Z,6.80
2022-10-04T06:25:37.334Z,6.28
2022-10-04T06:28:46.542Z,11.52
2022-10-04T06:32:20.325Z,4.28
2022-10-04T06:35:37.014Z,6.07
2022-10-04T06:38:38.225Z,7.47
2022-10-04T06:41:51.213Z,6.07
2022-10-04T06:44:52.453Z,7.13
2022-10-04T06:48:02.618Z,11.93
2022-10-04T06:51:22.399Z,9.75
2022-10-04T06:54:31.895Z,7.28
2022-10-04T06:57:59.976Z,9.98
2022-10-04T07:01:23.958Z,11.35
2022-10-04T07:04:28.010Z,5.35
2022-10-04T07:07:38.364Z,4.50
2022-10-04T07:10:51.899Z,7.35
2022-10-04T07:13:57.676Z,6.15
2022-10-04T07:17:03.247Z,5.63
2022-10-04T07:20:05.796Z,5.93
2022-10-04T07:23:14.151Z,5.32
2022-10-04T07:26:44.896Z,4.93
2022-10-04T07:29:47.066Z,6.57
2022-10-04T07:32:50.644Z,5.72
2022-10-04T07:35:54.233Z,6.57
2022-10-04T07:39:07.429Z,6.68
2022-10-04T07:42:12.410Z,7.13
2022-10-04T07:45:19.448Z,6.82
2022-10-04T07:48:23.435Z,8.43
2022-10-04T07:51:41.259Z,9.18
2022-10-04T07:55:07.836Z,7.45
2022-10-04T07:58:18.016Z,8.30
2022-10-04T08:01:25.637Z,8.95
2022-10-04T08:04:28.308Z,11.02
2022-10-04T08:07:35.712Z,7.85
2022-10-04T08:10:42.914Z,9.60
2022-10-04T08:13:50.524Z,9.80
2022-10-04T08:16:51.779Z,8.40
2022-10-04T08:19:58.758Z,10.55
2022-10-04T08:23:06.438Z,9.07
2022-10-04T08:26:15.246Z,6.82
2022-10-04T08:29:34.891Z,7.35
2022-10-04T08:32:45.322Z,6.53
2022-10-04T08:36:03.110Z,5.63
2022-10-04T08:39:06.577Z,6.43
2022-10-04T08:42:25.520Z,5.90
2022-10-04T08:45:32.705Z,6.38
2022-10-04T08:48:40.346Z,5.45
2022-10-04T08:51:41.609Z,5.63
2022-10-04T08:55:00.175Z,6.28
2022-10-04T08:58:16.770Z,6.00
2022-10-04T09:01:25.255Z,5.43
2022-10-04T09:04:46.798Z,4.75
2022-10-04T09:07:48.754Z,6.25
2022-10-04T09:11:18.003Z,6.18
2022-10-04T09:14:38.735Z,6.53
2022-10-04T09:17:58.626Z,6.32
2022-10-04T09:21:18.570Z,7.03
2022-10-04T09:24:19.805Z,8.43
2022-10-04T09:27:53.696Z,6.40
2022-10-04T09:30:59.264Z,7.07
2022-10-04T09:34:25.994Z,7.40
2022-10-04T09:37:41.337Z,5.50
2022-10-04T09:40:52.264Z,6.45
2022-10-04T09:43:56.344Z,7.43
2022-10-04T09:47:04.355Z,6.15
2022-10-04T09:50:09.265Z,8.18
2022-10-04T09:53:21.673Z,7.10
2022-10-04T09:56:32.032Z,7.63
2022-10-04T09:59:39.589Z,7.38
2022-10-04T10:02:47.001Z,9.07
2022-10-04T10:05:48.261Z,9.32
2022-10-04T10:08:49.497Z,8.65
2022-10-04T10:12:27.950Z,7.13
2022-10-04T10:15:44.812Z,6.90
2022-10-04T10:18:46.398Z,6.43
2022-10-04T10:21:54.066Z,7.68
2022-10-04T10:25:07.569Z,8.70
2022-10-04T10:28:29.059Z,7.20
2022-10-04T10:31:39.394Z,7.10
2022-10-04T10:34:46.691Z,8.27
2022-10-04T10:38:04.831Z,7.28
2022-10-04T10:41:19.187Z,6.38
2022-10-04T10:44:26.532Z,7.25
2022-10-04T10:47:33.883Z,5.75
2022-10-04T10:50:58.410Z,5.50
2022-10-04T10:54:18.545Z,5.40
2022-10-04T10:57:22.609Z,5.78
2022-10-04T11:00:25.718Z,5.68
2022-10-04T11:03:40.159Z,6.57
2022-10-04T11:06:50.781Z,6.40
2022-10-04T11:10:07.374Z,5.40
2022-10-04T11:13:29.808Z,5.03
2022-10-04T11:16:41.315Z,4.63
2022-10-04T11:19:54.745Z,6.35
2022-10-04T11:23:08.864Z,4.93
2022-10-04T11:26:28.621Z,5.47
2022-10-04T11:29:32.933Z,4.68
2022-10-04T11:32:54.730Z,3.63
2022-10-04T11:36:08.380Z,5.25
2022-10-04T11:39:30.206Z,4.10
2022-10-04T11:42:49.361Z,4.47
2022-10-04T11:46:11.039Z,3.50
2022-10-04T11:49:18.541Z,3.83
2022-10-04T11:52:49.417Z,3.40
2022-10-04T11:56:10.070Z,4.85
2022-10-04T11:59:37.378Z,3.05
2022-10-04T12:02:44.941Z,3.22
2022-10-04T12:05:55.582Z,3.33
2022-10-04T12:08:56.877Z,3.03
2022-10-04T12:12:36.024Z,3.95
2022-10-04T12:15:42.630Z,3.63
2022-10-04T12:18:51.615Z,3.97
2022-10-04T12:22:11.861Z,4.50
2022-10-04T12:25:15.880Z,4.25
2022-10-04T12:28:17.302Z,5.03
2022-10-04T12:31:30.685Z,4.57
2022-10-04T12:34:32.012Z,3.63
2022-10-04T12:37:38.770Z,3.60
2022-10-04T12:40:49.247Z,4.65
2022-10-04T12:44:09.673Z,3.88
2022-10-04T12:47:29.910Z,5.10
2022-10-04T12:50:39.321Z,3.90
2022-10-04T12:57:00.507Z,3.88
2022-10-04T13:00:02.203Z,4.35
2022-10-04T13:03:09.388Z,3.97
2022-10-04T13:06:16.771Z,6.13
2022-10-04T13:09:37.116Z,4.07
2022-10-04T13:12:59.811Z,4.75
2022-10-04T13:19:33.765Z,3.72
2022-10-04T13:22:57.905Z,4.60
2022-10-04T13:26:15.514Z,4.47
2022-10-04T13:29:35.843Z,3.05
2022-10-04T13:33:00.416Z,3.55
2022-10-04T13:36:24.036Z,3.67
2022-10-04T13:39:32.388Z,3.42
2022-10-04T13:42:42.910Z,3.10
2022-10-04T13:45:44.402Z,3.47
2022-10-04T13:48:56.303Z,2.97
2022-10-04T13:52:20.531Z,3.33
2022-10-04T13:55:59.738Z,3.92
2022-10-04T13:59:04.470Z,3.70
2022-10-04T14:02:24.885Z,3.30
2022-10-04T14:05:39.292Z,3.63
2022-10-04T14:08:48.287Z,2.97
2022-10-04T14:11:54.035Z,2.97
2022-10-04T14:14:55.476Z,2.70
2022-10-04T14:18:01.149Z,3.63
2022-10-04T14:21:21.048Z,2.60
2022-10-04T14:24:40.748Z,2.72
2022-10-04T14:27:43.358Z,2.35
2022-10-04T14:30:47.654Z,2.50
2022-10-04T14:33:48.922Z,3.00
2022-10-04T14:36:56.331Z,2.92
2022-10-04T14:40:16.502Z,2.80
2022-10-04T14:43:17.768Z,3.88
2022-10-04T14:46:19.050Z,2.72
2022-10-04T14:49:25.947Z,3.17
2022-10-04T14:52:27.197Z,2.90
2022-10-04T14:55:49.611Z,3.70
2022-10-04T14:58:59.602Z,3.72
2022-10-04T15:02:00.848Z,2.80
2022-10-04T15:05:08.165Z,4.15
2022-10-04T15:08:21.578Z,3.13
2022-10-04T15:11:40.543Z,3.40
2022-10-04T15:14:45.157Z,3.50
2022-10-04T15:17:49.630Z,2.70
2022-10-04T15:20:54.934Z,2.72
2022-10-04T15:24:16.425Z,3.22
2022-10-04T15:27:32.814Z,2.97
2022-10-04T15:30:36.890Z,2.95
2022-10-04T15:33:55.567Z,3.10
2022-10-04T15:37:03.019Z,3.45
2022-10-04T15:40:04.288Z,4.22
2022-10-04T15:43:20.638Z,5.72
2022-10-04T15:46:40.397Z,3.70
2022-10-04T15:49:52.969Z,3.17
2022-10-04T15:53:03.383Z,3.17
2022-10-04T15:56:08.356Z,3.60
2022-10-04T15:59:16.408Z,2.92
2022-10-04T16:02:36.639Z,3.97
2022-10-04T16:05:43.967Z,3.75
2022-10-04T16:09:00.205Z,4.03
2022-10-04T16:12:20.503Z,3.08
2022-10-04T16:15:32.870Z,3.42
2022-10-04T16:18:53.139Z,4.50
2022-10-04T16:21:55.175Z,4.13
2022-10-04T16:25:19.440Z,4.75
2022-10-04T16:28:29.456Z,4.53
2022-10-04T16:31:52.315Z,4.88
2022-10-04T16:35:17.754Z,5.30
2022-10-04T16:38:26.360Z,5.43
2022-10-04T16:41:33.897Z,4.75
2022-10-04T16:44:38.422Z,3.90
2022-10-04T16:47:52.602Z,5.68
2022-10-04T16:51:13.043Z,5.72
2022-10-04T16:54:29.784Z,7.00
2022-10-04T16:57:31.124Z,5.88
2022-10-04T17:00:35.405Z,3.72
2022-10-04T17:03:39.087Z,6.70
2022-10-04T17:06:49.058Z,4.57
2022-10-04T17:09:57.053Z,11.05
2022-10-04T17:13:01.307Z,6.60
2022-10-04T17:16:05.559Z,6.03
2022-10-04T17:19:15.767Z,5.45
2022-10-04T17:22:41.367Z,5.38
2022-10-04T17:26:02.890Z,5.85
2022-10-04T17:29:16.271Z,8.52
2022-10-04T17:32:26.169Z,6.93
2022-10-04T17:35:46.968Z,5.18
2022-10-04T17:38:51.386Z,5.05
2022-10-04T17:41:52.622Z,5.45
2022-10-04T17:45:20.035Z,7.13
2022-10-04T17:48:42.344Z,7.10
2022-10-04T17:52:04.863Z,6.78
2022-10-04T17:55:18.690Z,6.97
2022-10-04T17:58:24.084Z,6.60
2022-10-04T18:01:43.997Z,10.00
2022-10-04T18:04:49.438Z,7.82
2022-10-04T18:07:59.390Z,5.80
2022-10-04T18:11:00.959Z,7.10
2022-10-04T18:14:25.610Z,7.88
2022-10-04T18:17:38.624Z,13.55
2022-10-04T18:20:45.439Z,10.77
2022-10-04T18:23:57.291Z,10.48
2022-10-04T18:27:04.938Z,10.95
2022-10-04T18:30:17.006Z,10.05
2022-10-04T18:33:26.139Z,9.85
2022-10-04T18:36:31.910Z,10.77
2022-10-04T18:39:44.092Z,10.65
2022-10-04T18:42:53.400Z,9.30
2022-10-04T18:46:02.367Z,10.63
2022-10-04T18:49:27.063Z,6.28
2022-10-04T18:52:46.647Z,6.70
2022-10-04T18:56:06.464Z,6.60
2022-10-04T18:59:56.695Z,5.53
2022-10-04T19:03:00.780Z,7.00
2022-10-04T19:06:20.830Z,6.15
2022-10-04T19:09:49.440Z,7.82
2022-10-04T19:12:59.761Z,6.90
2022-10-04T19:16:10.146Z,6.15
2022-10-04T19:19:26.765Z,8.13
2022-10-04T19:22:43.396Z,6.97
2022-10-04T19:26:17.724Z,6.38
2022-10-04T19:29:18.121Z,6.85
2022-10-04T19:32:31.766Z,9.68
2022-10-04T19:35:33.090Z,9.18
2022-10-04T19:38:37.285Z,6.45
2022-10-04T19:41:41.582Z,7.35
2022-10-04T19:44:52.137Z,8.45
2022-10-04T19:47:58.433Z,10.00
2022-10-04T19:51:12.850Z,7.50
2022-10-04T19:54:16.122Z,6.20
2022-10-04T19:57:21.437Z,6.93
2022-10-04T20:00:22.830Z,8.30
2022-10-04T20:03:24.196Z,8.65
2022-10-04T20:06:26.183Z,9.65
2022-10-04T20:09:31.318Z,9.35
2022-10-04T20:12:42.655Z,8.95
2022-10-04T20:15:46.399Z,11.10
2022-10-04T20:18:51.667Z,7.95
2022-10-04T20:21:52.956Z,8.73
2022-10-04T20:24:56.165Z,8.27
2022-10-04T20:28:01.800Z,7.85
2022-10-04T20:31:06.691Z,8.70
2022-10-04T20:34:43.541Z,10.27
2022-10-04T20:37:44.860Z,8.02
2022-10-04T20:40:46.189Z,7.78
2022-10-04T20:44:03.776Z,8.07
2022-10-04T20:47:05.078Z,7.38
2022-10-04T20:50:09.358Z,7.78
2022-10-04T20:53:15.549Z,6.78
2022-10-04T20:56:23.962Z,9.50
2022-10-04T20:59:25.284Z,7.30
2022-10-04T21:02:28.645Z,7.38
2022-10-04T21:05:29.969Z,7.68
2022-10-04T21:08:31.400Z,7.35
2022-10-04T21:11:45.619Z,6.13
2022-10-04T21:15:01.013Z,8.15
2022-10-04T21:18:07.124Z,5.35
2022-10-04T21:21:08.369Z,7.85
2022-10-04T21:24:35.997Z,8.90
2022-10-04T21:27:43.406Z,7.40
2022-10-04T21:30:44.696Z,6.32
2022-10-04T21:33:45.918Z,8.35
2022-10-04T21:36:47.409Z,8.77
2022-10-04T21:39:49.017Z,8.57
2022-10-04T21:42:50.356Z,6.90
2022-10-04T21:45:51.620Z,5.78
2022-10-04T21:48:52.929Z,8.52
2022-10-04T21:51:54.187Z,7.35
2022-10-04T21:54:55.449Z,7.00
2022-10-04T21:57:56.688Z,6.80
2022-10-04T22:00:58.015Z,7.65
2022-10-04T22:03:59.302Z,7.32
2022-10-04T22:07:00.535Z,8.10
2022-10-04T22:10:01.805Z,6.10
2022-10-04T22:13:03.055Z,7.70
2022-10-04T22:16:04.714Z,6.20
2022-10-04T22:19:06.025Z,8.73
2022-10-04T22:22:12.172Z,6.07
2022-10-04T22:25:14.930Z,9.77
2022-10-04T22:28:23.825Z,9.70
2022-10-04T22:31:26.170Z,6.38
2022-10-04T22:34:27.471Z,6.35
2022-10-04T22:37:30.966Z,5.75
2022-10-04T22:40:32.927Z,7.95
2022-10-04T22:43:34.186Z,6.47
2022-10-04T22:46:37.354Z,7.75
2022-10-04T22:49:41.004Z,7.78
2022-10-04T22:52:42.261Z,6.25
2022-10-04T22:55:43.482Z,6.50
2022-10-04T22:58:44.875Z,7.50
2022-10-04T23:01:46.933Z,5.22
2022-10-04T23:04:52.253Z,7.25
2022-10-04T23:07:53.642Z,6.32
2022-10-04T23:10:55.625Z,7.22
2022-10-04T23:13:57.223Z,12.02
2022-10-04T23:16:58.487Z,5.28
2022-10-04T23:20:09.071Z,6.85
2022-10-04T23:23:21.007Z,8.90
2022-10-04T23:26:23.750Z,7.28
2022-10-04T23:29:26.569Z,7.07
2022-10-04T23:32:28.346Z,6.13
2022-10-04T23:35:31.138Z,6.45
2022-10-04T23:38:32.943Z,7.40
2022-10-04T23:41:34.191Z,7.78
2022-10-04T23:44:36.909Z,8.10
2022-10-04T23:47:38.141Z,7.95
2022-10-04T23:50:40.038Z,6.80
2022-10-04T23:53:42.051Z,5.55
2022-10-04T23:56:44.387Z,6.65
2022-10-04T23:59:46.023Z,7.15
